Time,TemperatureF,DewpointF,PressureIn,WindDirection,WindDirectionDegrees,WindSpeedMPH,WindSpeedGustMPH,Humidity,HourlyPrecipIn,Conditions,Clouds,dailyrainin,SoftwareType,DateUTC
2013-01-23 00:00:00,10.9,-11.3,-100.00,SSW,204,3.6,4.9,35,-99.99,,,0.00,LWC V2.10 B1813,2013-01-23 05:00:00,
2013-01-23 00:01:00,10.9,-11.3,-100.00,SSW,208,4.0,4.9,35,-99.99,,,0.00,LWC V2.10 B1813,2013-01-23 05:01:00,
2013-01-23 00:03:00,10.8,-11.4,-100.00,SSW,199,2.7,4.0,35,-99.99,,,0.00,LWC V2.10 B1813,2013-01-23 05:03:00,
2013-01-23 00:08:00,10.8,-11.4,-100.00,SSW,211,4.0,6.3,35,-99.99,,,0.00,LWC V2.10 B1813,2013-01-23 05:08:00,
2013-01-23 00:13:00,10.4,-11.8,-100.00,SSW,208,3.6,5.8,35,-99.99,,,0.00,LWC V2.10 B1813,2013-01-23 05:13:00,
2013-01-23 00:18:00,10.4,-11.8,-100.00,SSW,213,6.3,6.3,35,-99.99,,,0.00,LWC V2.10 B1813,2013-01-23 05:18:00,
2013-01-23 00:23:00,10.4,-11.8,-100.00,SSW,204,3.1,8.3,35,-99.99,,,0.00,LWC V2.10 B1813,2013-01-23 05:23:00,
2013-01-23 00:28:00,10.2,-11.9,-100.00,SSW,199,3.6,4.0,35,-99.99,,,0.00,LWC V2.10 B1813,2013-01-23 05:28:00,
2013-01-23 00:31:00,10.2,-11.9,-100.00,SW,222,5.8,5.8,35,-99.99,,,0.00,LWC V2.10 B1813,2013-01-23 05:31:00,
2013-01-23 00:36:00,10.0,-12.1,-100.00,SSW,199,3.1,5.8,35,-99.99,,,0.00,LWC V2.10 B1813,2013-01-23 05:36:00,
2013-01-23 00:41:00,10.0,-12.1,-100.00,SSW,198,2.7,4.9,35,-99.99,,,0.00,LWC V2.10 B1813,2013-01-23 05:41:00,
2013-01-23 00:46:00,10.0,-12.1,-100.00,SSW,208,3.1,4.0,35,-99.99,,,0.00,LWC V2.10 B1813,2013-01-23 05:46:00,
2013-01-23 00:51:00,9.9,-12.3,-100.00,SSW,204,2.2,3.6,35,-99.99,,,0.00,LWC V2.10 B1813,2013-01-23 05:51:00,
2013-01-23 00:56:00,9.7,-12.4,-100.00,SSW,205,3.1,4.5,35,-99.99,,,0.00,LWC V2.10 B1813,2013-01-23 05:56:00,
2013-01-23 01:01:00,9.7,-12.4,-100.00,South,183,5.4,5.4,35,-99.99,,,0.00,LWC V2.10 B1813,2013-01-23 06:01:00,
2013-01-23 01:06:00,9.7,-12.4,-100.00,SSW,210,3.1,5.4,35,-99.99,,,0.00,LWC V2.10 B1813,2013-01-23 06:06:00,
2013-01-23 01:11:00,9.5,-12.6,-100.00,South,190,3.6,4.0,35,-99.99,,,0.00,LWC V2.10 B1813,2013-01-23 06:11:00,
2013-01-23 01:16:00,9.5,-12.6,-100.00,SSW,204,2.7,4.0,35,-99.99,,,0.00,LWC V2.10 B1813,2013-01-23 06:16:00,
2013-01-23 01:21:00,9.5,-12.6,-100.00,SW,215,4.0,5.4,35,-99.99,,,0.00,LWC V2.10 B1813,2013-01-23 06:21:00,
2013-01-23 01:26:00,9.5,-12.6,-100.00,SSW,209,4.0,4.9,35,-99.99,,,0.00,LWC V2.10 B1813,2013-01-23 06:26:00,
2013-01-23 01:31:00,9.5,-12.6,-100.00,SSW,211,4.0,4.9,35,-99.99,,,0.00,LWC V2.10 B1813,2013-01-23 06:31:00,
2013-01-23 01:36:00,9.3,-12.7,-100.00,SSW,209,3.1,4.0,35,-99.99,,,0.00,LWC V2.10 B1813,2013-01-23 06:36:00,
2013-01-23 01:41:00,9.3,-12.7,-100.00,SW,221,3.1,3.1,35,-99.99,,,0.00,LWC V2.10 B1813,2013-01-23 06:41:00,
2013-01-23 01:46:00,9.1,-12.9,-100.00,SSW,207,3.6,4.0,35,-99.99,,,0.00,LWC V2.10 B1813,2013-01-23 06:46:00,
2013-01-23 01:51:00,9.1,-12.9,-100.00,SW,233,3.1,4.0,35,-99.99,,,0.00,LWC V2.10 B1813,2013-01-23 06:51:00,
2013-01-23 01:56:00,9.0,-13.1,-100.00,SSW,211,3.1,4.9,35,-99.99,,,0.00,LWC V2.10 B1813,2013-01-23 06:56:00,
2013-01-23 02:01:00,8.8,-13.2,-100.00,SW,215,2.7,3.6,35,-99.99,,,0.00,LWC V2.10 B1813,2013-01-23 07:01:00,
2013-01-23 02:06:00,9.0,-13.1,-100.00,SW,220,4.0,4.0,35,-99.99,,,0.00,LWC V2.10 B1813,2013-01-23 07:06:00,
2013-01-23 02:11:00,8.8,-13.2,-100.00,SW,235,4.0,4.0,35,-99.99,,,0.00,LWC V2.10 B1813,2013-01-23 07:11:00,
2013-01-23 02:16:00,8.6,-13.4,-100.00,SW,222,2.7,4.0,35,-99.99,,,0.00,LWC V2.10 B1813,2013-01-23 07:16:00,
2013-01-23 02:21:00,8.8,-13.2,-100.00,SSW,209,2.7,3.1,35,-99.99,,,0.00,LWC V2.10 B1813,2013-01-23 07:21:00,
2013-01-23 02:26:00,8.8,-13.2,-100.00,SSW,212,3.6,3.6,35,-99.99,,,0.00,LWC V2.10 B1813,2013-01-23 07:26:00,
2013-01-23 02:31:00,9.0,-13.1,-100.00,SSW,212,3.6,3.6,35,-99.99,,,0.00,LWC V2.10 B1813,2013-01-23 07:31:00,
2013-01-23 02:36:00,8.8,-13.2,-100.00,SSW,211,4.0,5.8,35,-99.99,,,0.00,LWC V2.10 B1813,2013-01-23 07:36:00,
2013-01-23 02:41:00,9.0,-13.1,-100.00,SSW,205,3.6,4.9,35,-99.99,,,0.00,LWC V2.10 B1813,2013-01-23 07:41:00,
2013-01-23 02:46:00,8.8,-13.2,-100.00,SW,218,3.1,4.0,35,-99.99,,,0.00,LWC V2.10 B1813,2013-01-23 07:46:00,
2013-01-23 02:51:00,8.8,-13.2,-100.00,SSW,204,4.0,4.5,35,-99.99,,,0.00,LWC V2.10 B1813,2013-01-23 07:51:00,
2013-01-23 02:56:00,8.8,-13.2,-100.00,SSW,212,3.1,3.6,35,-99.99,,,0.00,LWC V2.10 B1813,2013-01-23 07:56:00,
2013-01-23 03:01:00,8.8,-13.2,-100.00,SSW,206,3.1,5.8,35,-99.99,,,0.00,LWC V2.10 B1813,2013-01-23 08:01:00,
2013-01-23 03:06:00,8.8,-13.2,-100.00,SSW,206,3.6,4.0,35,-99.99,,,0.00,LWC V2.10 B1813,2013-01-23 08:06:00,
2013-01-23 03:11:00,9.1,-12.9,-100.00,SSW,208,3.6,4.9,35,-99.99,,,0.00,LWC V2.10 B1813,2013-01-23 08:11:00,
2013-01-23 03:16:00,9.1,-12.9,-100.00,SW,222,4.0,5.4,35,-99.99,,,0.00,LWC V2.10 B1813,2013-01-23 08:16:00,
2013-01-23 03:21:00,9.3,-12.7,-100.00,SW,214,4.0,4.0,35,-99.99,,,0.00,LWC V2.10 B1813,2013-01-23 08:21:00,
2013-01-23 03:27:00,9.3,-12.7,-100.00,SW,214,3.6,4.0,35,-99.99,,,0.00,LWC V2.10 B1813,2013-01-23 08:27:00,
2013-01-23 03:32:00,9.5,-12.6,-100.00,SW,214,3.6,4.0,35,-99.99,,,0.00,LWC V2.10 B1813,2013-01-23 08:32:00,
2013-01-23 03:37:00,9.5,-12.6,-100.00,SW,214,3.1,5.4,35,-99.99,,,0.00,LWC V2.10 B1813,2013-01-23 08:37:00,
2013-01-23 03:42:00,9.5,-12.6,-100.00,SW,222,2.7,4.0,35,-99.99,,,0.00,LWC V2.10 B1813,2013-01-23 08:42:00,
2013-01-23 03:47:00,9.5,-12.6,-100.00,SSW,200,3.1,4.0,35,-99.99,,,0.00,LWC V2.10 B1813,2013-01-23 08:47:00,
2013-01-23 03:52:00,9.5,-12.6,-100.00,SSW,208,4.0,4.0,35,-99.99,,,0.00,LWC V2.10 B1813,2013-01-23 08:52:00,
2013-01-23 03:57:00,9.7,-12.4,-100.00,SSW,205,4.0,4.0,35,-99.99,,,0.00,LWC V2.10 B1813,2013-01-23 08:57:00,
2013-01-23 04:02:00,9.7,-12.4,-100.00,SSW,205,4.0,4.9,35,-99.99,,,0.00,LWC V2.10 B1813,2013-01-23 09:02:00,
2013-01-23 04:07:00,9.9,-12.3,-100.00,South,186,3.6,5.4,35,-99.99,,,0.00,LWC V2.10 B1813,2013-01-23 09:07:00,
2013-01-23 04:12:00,10.0,-12.1,-100.00,SSW,205,4.9,4.9,35,-99.99,,,0.00,LWC V2.10 B1813,2013-01-23 09:12:00,
2013-01-23 04:17:00,10.0,-12.1,-100.00,SW,230,5.4,5.4,35,-99.99,,,0.00,LWC V2.10 B1813,2013-01-23 09:17:00,
2013-01-23 04:22:00,10.0,-12.1,-100.00,South,187,4.9,5.8,35,-99.99,,,0.00,LWC V2.10 B1813,2013-01-23 09:22:00,
2013-01-23 04:27:00,9.9,-12.3,-100.00,SSW,202,3.6,5.4,35,-99.99,,,0.00,LWC V2.10 B1813,2013-01-23 09:27:00,
2013-01-23 04:32:00,9.7,-12.4,-100.00,SSW,197,2.7,4.9,35,-99.99,,,0.00,LWC V2.10 B1813,2013-01-23 09:32:00,
2013-01-23 04:37:00,9.7,-12.4,-100.00,SSW,202,3.6,4.9,35,-99.99,,,0.00,LWC V2.10 B1813,2013-01-23 09:37:00,
2013-01-23 04:42:00,9.7,-12.4,-100.00,SSW,205,3.6,4.0,35,-99.99,,,0.00,LWC V2.10 B1813,2013-01-23 09:42:00,
2013-01-23 04:47:00,9.5,-12.6,-100.00,SSW,212,2.7,4.0,35,-99.99,,,0.00,LWC V2.10 B1813,2013-01-23 09:47:00,
2013-01-23 04:52:00,9.5,-12.6,-100.00,SSW,209,2.2,3.1,35,-99.99,,,0.00,LWC V2.10 B1813,2013-01-23 09:52:00,
2013-01-23 04:57:00,9.5,-12.6,-100.00,SSW,210,3.1,3.1,35,-99.99,,,0.00,LWC V2.10 B1813,2013-01-23 09:57:00,
2013-01-23 05:02:00,9.5,-12.6,-100.00,SSW,204,4.0,5.4,35,-99.99,,,0.00,LWC V2.10 B1813,2013-01-23 10:02:00,
2013-01-23 05:07:00,9.5,-12.6,-100.00,SSW,204,2.2,4.0,35,-99.99,,,0.00,LWC V2.10 B1813,2013-01-23 10:07:00,
2013-01-23 05:12:00,9.5,-12.6,-100.00,SSW,204,3.6,4.0,35,-99.99,,,0.00,LWC V2.10 B1813,2013-01-23 10:12:00,
2013-01-23 05:17:00,9.5,-12.6,-100.00,SSW,204,4.0,4.9,35,-99.99,,,0.00,LWC V2.10 B1813,2013-01-23 10:17:00,
2013-01-23 05:22:00,9.5,-12.6,-100.00,SSW,203,3.1,3.6,35,-99.99,,,0.00,LWC V2.10 B1813,2013-01-23 10:22:00,
2013-01-23 05:27:00,9.5,-12.6,-100.00,SSW,199,6.3,6.3,35,-99.99,,,0.00,LWC V2.10 B1813,2013-01-23 10:27:00,
2013-01-23 05:32:00,9.5,-12.6,-100.00,SSW,202,5.4,5.4,35,-99.99,,,0.00,LWC V2.10 B1813,2013-01-23 10:32:00,
2013-01-23 05:37:00,9.5,-12.6,-100.00,SSW,198,4.9,4.9,35,-99.99,,,0.00,LWC V2.10 B1813,2013-01-23 10:37:00,
2013-01-23 05:42:00,9.3,-12.7,-100.00,SSW,212,4.9,5.4,35,-99.99,,,0.00,LWC V2.10 B1813,2013-01-23 10:42:00,
2013-01-23 05:47:00,9.5,-12.6,-100.00,SSW,208,5.4,5.4,35,-99.99,,,0.00,LWC V2.10 B1813,2013-01-23 10:47:00,
2013-01-23 05:52:00,9.3,-12.7,-100.00,South,183,3.1,5.4,35,-99.99,,,0.00,LWC V2.10 B1813,2013-01-23 10:52:00,
2013-01-23 05:57:00,9.3,-12.7,-100.00,SSW,212,4.0,4.0,35,-99.99,,,0.00,LWC V2.10 B1813,2013-01-23 10:57:00,
2013-01-23 06:02:00,9.3,-12.7,-100.00,SW,223,4.9,4.9,35,-99.99,,,0.00,LWC V2.10 B1813,2013-01-23 11:02:00,
2013-01-23 06:07:00,9.3,-12.7,-100.00,South,190,3.6,5.8,35,-99.99,,,0.00,LWC V2.10 B1813,2013-01-23 11:07:00,
2013-01-23 06:12:00,9.3,-12.7,-100.00,SSW,211,3.6,4.9,35,-99.99,,,0.00,LWC V2.10 B1813,2013-01-23 11:12:00,
2013-01-23 06:17:00,9.3,-12.7,-100.00,SW,229,7.2,7.2,35,-99.99,,,0.00,LWC V2.10 B1813,2013-01-23 11:17:00,
2013-01-23 06:22:00,9.1,-12.9,-100.00,SW,232,4.0,4.0,35,-99.99,,,0.00,LWC V2.10 B1813,2013-01-23 11:22:00,
2013-01-23 06:27:00,9.1,-12.9,-100.00,SSW,213,5.8,5.8,35,-99.99,,,0.00,LWC V2.10 B1813,2013-01-23 11:27:00,
2013-01-23 06:32:00,9.1,-12.9,-100.00,SSW,209,3.6,5.4,35,-99.99,,,0.00,LWC V2.10 B1813,2013-01-23 11:32:00,
2013-01-23 06:37:00,9.1,-12.9,-100.00,SSW,201,3.6,5.4,35,-99.99,,,0.00,LWC V2.10 B1813,2013-01-23 11:37:00,
2013-01-23 06:42:00,9.0,-13.1,-100.00,SSW,206,3.1,4.0,35,-99.99,,,0.00,LWC V2.10 B1813,2013-01-23 11:42:00,
2013-01-23 06:47:00,9.0,-13.1,-100.00,SW,229,4.9,6.3,35,-99.99,,,0.00,LWC V2.10 B1813,2013-01-23 11:47:00,
2013-01-23 06:52:00,9.0,-13.1,-100.00,South,188,2.7,3.6,35,-99.99,,,0.00,LWC V2.10 B1813,2013-01-23 11:52:00,
2013-01-23 06:57:00,8.8,-13.2,-100.00,South,189,2.7,3.1,35,-99.99,,,0.00,LWC V2.10 B1813,2013-01-23 11:57:00,
2013-01-23 07:02:00,8.8,-13.2,-100.00,SSW,194,3.1,4.0,35,-99.99,,,0.00,LWC V2.10 B1813,2013-01-23 12:02:00,
2013-01-23 07:07:00,8.8,-13.2,-100.00,SSW,205,2.7,4.0,35,-99.99,,,0.00,LWC V2.10 B1813,2013-01-23 12:07:00,
2013-01-23 07:12:00,8.8,-13.2,-100.00,SSW,205,4.0,4.0,35,-99.99,,,0.00,LWC V2.10 B1813,2013-01-23 12:12:00,
2013-01-23 07:17:00,9.1,-12.9,-100.00,SW,221,3.1,4.9,35,-99.99,,,0.00,LWC V2.10 B1813,2013-01-23 12:17:00,
2013-01-23 07:22:00,9.3,-12.7,-100.00,SSW,209,3.1,4.9,35,-99.99,,,0.00,LWC V2.10 B1813,2013-01-23 12:22:00,
2013-01-23 07:27:00,9.3,-12.7,-100.00,SSW,209,3.1,4.0,35,-99.99,,,0.00,LWC V2.10 B1813,2013-01-23 12:27:00,
2013-01-23 07:32:00,9.3,-12.7,-100.00,SSW,208,2.7,3.6,35,-99.99,,,0.00,LWC V2.10 B1813,2013-01-23 12:32:00,
2013-01-23 07:37:00,9.5,-12.6,-100.00,SSW,209,2.7,4.0,35,-99.99,,,0.00,LWC V2.10 B1813,2013-01-23 12:37:00,
2013-01-23 07:42:00,9.5,-12.6,-100.00,SSW,198,2.7,4.0,35,-99.99,,,0.00,LWC V2.10 B1813,2013-01-23 12:42:00,
2013-01-23 07:47:00,9.7,-12.4,-100.00,SSW,198,0.0,0.0,35,-99.99,,,0.00,LWC V2.10 B1813,2013-01-23 12:47:00,
2013-01-23 07:52:00,10.0,-12.1,-100.00,SSW,198,0.0,4.0,35,-99.99,,,0.00,LWC V2.10 B1813,2013-01-23 12:52:00,
2013-01-23 07:57:00,10.0,-12.1,-100.00,SSW,198,0.0,0.0,35,-99.99,,,0.00,LWC V2.10 B1813,2013-01-23 12:57:00,
2013-01-23 08:02:00,10.2,-11.9,-100.00,SW,236,4.0,4.0,35,-99.99,,,0.00,LWC V2.10 B1813,2013-01-23 13:02:00,
2013-01-23 08:07:00,10.4,-11.8,-100.00,SSW,197,4.9,5.8,35,-99.99,,,0.00,LWC V2.10 B1813,2013-01-23 13:07:00,
2013-01-23 08:12:00,10.4,-11.8,-100.00,South,179,3.6,5.8,35,-99.99,,,0.00,LWC V2.10 B1813,2013-01-23 13:12:00,
2013-01-23 08:17:00,10.6,-11.6,-100.00,South,186,2.7,4.9,35,-99.99,,,0.00,LWC V2.10 B1813,2013-01-23 13:17:00,
2013-01-23 08:22:00,10.8,-11.4,-100.00,SSW,192,3.6,5.8,35,-99.99,,,0.00,LWC V2.10 B1813,2013-01-23 13:22:00,
2013-01-23 08:27:00,10.9,-11.3,-100.00,SSW,208,2.7,4.9,35,-99.99,,,0.00,LWC V2.10 B1813,2013-01-23 13:27:00,
2013-01-23 08:32:00,10.9,-11.3,-100.00,SSW,200,3.6,5.4,35,-99.99,,,0.00,LWC V2.10 B1813,2013-01-23 13:32:00,
2013-01-23 08:37:00,11.1,-11.1,-100.00,South,184,4.9,5.8,35,-99.99,,,0.00,LWC V2.10 B1813,2013-01-23 13:37:00,
2013-01-23 08:42:00,11.3,-11.0,-100.00,South,171,4.9,4.9,35,-99.99,,,0.00,LWC V2.10 B1813,2013-01-23 13:42:00,
2013-01-23 08:47:00,11.3,-11.0,-100.00,South,189,3.6,4.9,35,-99.99,,,0.00,LWC V2.10 B1813,2013-01-23 13:47:00,
2013-01-23 08:52:00,11.7,-10.6,-100.00,South,172,3.1,5.4,35,-99.99,,,0.00,LWC V2.10 B1813,2013-01-23 13:52:00,
2013-01-23 08:57:00,11.7,-10.6,-100.00,SSW,206,4.9,8.1,35,-99.99,,,0.00,LWC V2.10 B1813,2013-01-23 13:57:00,
2013-01-23 09:02:00,11.8,-10.5,-100.00,South,181,4.0,6.3,35,-99.99,,,0.00,LWC V2.10 B1813,2013-01-23 14:02:00,
2013-01-23 09:07:00,12.0,-10.3,-100.00,SW,228,5.8,8.1,35,-99.99,,,0.00,LWC V2.10 B1813,2013-01-23 14:07:00,
2013-01-23 09:12:00,12.2,-10.2,-100.00,South,179,4.0,5.8,35,-99.99,,,0.00,LWC V2.10 B1813,2013-01-23 14:12:00,
2013-01-23 09:17:00,12.6,-9.8,-100.00,SSW,199,4.0,5.4,35,-99.99,,,0.00,LWC V2.10 B1813,2013-01-23 14:17:00,
2013-01-23 09:22:00,12.2,-10.2,-100.00,SSW,207,4.9,6.3,35,-99.99,,,0.00,LWC V2.10 B1813,2013-01-23 14:22:00,
2013-01-23 09:27:00,12.4,-10.0,-100.00,South,176,8.7,8.7,35,-99.99,,,0.00,LWC V2.10 B1813,2013-01-23 14:27:00,
2013-01-23 09:32:00,12.7,-9.7,-100.00,SW,225,6.3,10.1,35,-99.99,,,0.00,LWC V2.10 B1813,2013-01-23 14:32:00,
2013-01-23 09:37:00,12.9,-9.5,-100.00,WSW,240,5.8,8.3,35,-99.99,,,0.00,LWC V2.10 B1813,2013-01-23 14:37:00,
2013-01-23 09:42:00,13.3,-9.2,-100.00,SSW,201,3.6,6.7,35,-99.99,,,0.00,LWC V2.10 B1813,2013-01-23 14:42:00,
2013-01-23 09:47:00,13.6,-8.9,-100.00,SSW,203,7.6,8.1,35,-99.99,,,0.00,LWC V2.10 B1813,2013-01-23 14:47:00,
2013-01-23 09:52:00,13.6,-8.9,-100.00,SSE,164,6.3,8.3,35,-99.99,,,0.00,LWC V2.10 B1813,2013-01-23 14:52:00,
2013-01-23 09:57:00,13.8,-8.7,-100.00,South,177,5.4,6.3,35,-99.99,,,0.00,LWC V2.10 B1813,2013-01-23 14:57:00,
2013-01-23 10:02:00,13.8,-4.0,-100.00,South,191,7.6,7.6,44,-99.99,,,0.00,LWC V2.10 B1813,2013-01-23 15:02:00,
2013-01-23 10:07:00,14.4,-3.5,-100.00,SSW,199,3.6,6.3,44,-99.99,,,0.00,LWC V2.10 B1813,2013-01-23 15:07:00,
2013-01-23 10:12:00,15.1,-3.3,-100.00,SSW,198,2.7,4.0,43,-99.99,,,0.00,LWC V2.10 B1813,2013-01-23 15:12:00,
2013-01-23 10:17:00,15.4,-3.0,-100.00,SSW,206,6.3,8.7,43,-99.99,,,0.00,LWC V2.10 B1813,2013-01-23 15:17:00,
2013-01-23 10:22:00,15.6,-3.3,-100.00,South,182,7.6,8.3,42,-99.99,,,0.00,LWC V2.10 B1813,2013-01-23 15:22:00,
2013-01-23 10:27:00,15.4,-4.0,-100.00,SSW,208,6.7,8.7,41,-99.99,,,0.00,LWC V2.10 B1813,2013-01-23 15:27:00,
2013-01-23 10:32:00,15.4,-4.0,-100.00,SSE,165,5.4,8.3,41,-99.99,,,0.00,LWC V2.10 B1813,2013-01-23 15:32:00,
2013-01-23 10:37:00,15.6,-3.8,-100.00,South,179,7.2,7.6,41,-99.99,,,0.00,LWC V2.10 B1813,2013-01-23 15:37:00,
2013-01-23 10:42:00,16.2,-3.4,-100.00,South,191,7.6,10.1,41,-99.99,,,0.00,LWC V2.10 B1813,2013-01-23 15:42:00,
2013-01-23 10:48:00,16.5,-2.5,-100.00,WSW,239,10.1,12.8,42,-99.99,,,0.00,LWC V2.10 B1813,2013-01-23 15:48:00,
2013-01-23 10:53:00,16.7,-2.9,-100.00,South,174,5.8,7.6,41,-99.99,,,0.00,LWC V2.10 B1813,2013-01-23 15:53:00,
2013-01-23 10:58:00,16.3,-3.2,-100.00,South,173,5.8,10.5,41,-99.99,,,0.00,LWC V2.10 B1813,2013-01-23 15:58:00,
2013-01-23 11:03:00,17.1,-2.5,-100.00,SW,220,10.1,10.1,41,-99.99,,,0.00,LWC V2.10 B1813,2013-01-23 16:03:00,
2013-01-23 11:08:00,16.9,-3.2,-100.00,South,182,5.8,9.6,40,-99.99,,,0.00,LWC V2.10 B1813,2013-01-23 16:08:00,
2013-01-23 11:13:00,17.4,-2.7,-100.00,SSW,212,5.8,8.7,40,-99.99,,,0.00,LWC V2.10 B1813,2013-01-23 16:13:00,
2013-01-23 11:18:00,18.1,-2.1,-100.00,SSW,212,5.8,8.1,40,-99.99,,,0.00,LWC V2.10 B1813,2013-01-23 16:18:00,
2013-01-23 11:23:00,17.8,-3.5,-100.00,South,173,8.1,13.2,38,-99.99,,,0.00,LWC V2.10 B1813,2013-01-23 16:23:00,
2013-01-23 11:28:00,17.6,-3.1,-100.00,SSE,162,5.8,11.9,39,-99.99,,,0.00,LWC V2.10 B1813,2013-01-23 16:28:00,
2013-01-23 11:33:00,17.4,-3.8,-100.00,SSW,212,8.7,8.7,38,-99.99,,,0.00,LWC V2.10 B1813,2013-01-23 16:33:00,
2013-01-23 11:38:00,17.4,-3.8,-100.00,South,180,4.0,8.1,38,-99.99,,,0.00,LWC V2.10 B1813,2013-01-23 16:38:00,
2013-01-23 11:43:00,17.6,-3.6,-100.00,SSW,205,10.1,10.1,38,-99.99,,,0.00,LWC V2.10 B1813,2013-01-23 16:43:00,
2013-01-23 11:48:00,18.1,-2.6,-100.00,South,171,8.3,10.5,39,-99.99,,,0.00,LWC V2.10 B1813,2013-01-23 16:48:00,
2013-01-23 11:53:00,17.8,-3.5,-100.00,SSW,210,7.6,11.0,38,-99.99,,,0.00,LWC V2.10 B1813,2013-01-23 16:53:00,
2013-01-23 11:58:00,18.3,-3.0,-100.00,South,177,5.8,10.5,38,-99.99,,,0.00,LWC V2.10 B1813,2013-01-23 16:58:00,
2013-01-23 12:03:00,17.8,-3.5,-100.00,SSE,165,6.3,8.3,38,-99.99,,,0.00,LWC V2.10 B1813,2013-01-23 17:03:00,
2013-01-23 12:08:00,17.4,-3.8,-100.00,South,189,9.6,10.5,38,-99.99,,,0.00,LWC V2.10 B1813,2013-01-23 17:08:00,
2013-01-23 12:13:00,18.1,-2.6,-100.00,SSW,200,5.4,8.3,39,-99.99,,,0.00,LWC V2.10 B1813,2013-01-23 17:13:00,
2013-01-23 12:18:00,18.7,-2.7,-100.00,SSW,206,8.7,11.0,38,-99.99,,,0.00,LWC V2.10 B1813,2013-01-23 17:18:00,
2013-01-23 12:23:00,20.1,-1.4,-100.00,SSW,198,6.3,8.7,38,-99.99,,,0.00,LWC V2.10 B1813,2013-01-23 17:23:00,
2013-01-23 12:28:00,19.8,-2.3,-100.00,SSW,193,13.2,13.2,37,-99.99,,,0.00,LWC V2.10 B1813,2013-01-23 17:28:00,
2013-01-23 12:33:00,19.9,-2.1,-100.00,South,172,8.3,11.0,37,-99.99,,,0.00,LWC V2.10 B1813,2013-01-23 17:33:00,
2013-01-23 12:38:00,20.3,-1.8,-100.00,SSE,161,5.8,12.3,37,-99.99,,,0.00,LWC V2.10 B1813,2013-01-23 17:38:00,
2013-01-23 12:43:00,19.6,-2.4,-100.00,SSW,203,5.4,8.3,37,-99.99,,,0.00,LWC V2.10 B1813,2013-01-23 17:43:00,
2013-01-23 12:48:00,19.0,-2.9,-100.00,SSE,164,6.3,8.1,37,-99.99,,,0.00,LWC V2.10 B1813,2013-01-23 17:48:00,
2013-01-23 12:53:00,19.2,-2.7,-100.00,South,171,5.8,12.3,37,-99.99,,,0.00,LWC V2.10 B1813,2013-01-23 17:53:00,
2013-01-23 12:58:00,18.7,-3.2,-100.00,SW,219,8.7,12.3,37,-99.99,,,0.00,LWC V2.10 B1813,2013-01-23 17:58:00,
2013-01-23 13:03:00,19.0,-2.9,-100.00,SSW,201,8.1,11.0,37,-99.99,,,0.00,LWC V2.10 B1813,2013-01-23 18:03:00,
2013-01-23 13:08:00,19.4,-2.6,-100.00,SSW,204,4.0,11.0,37,-99.99,,,0.00,LWC V2.10 B1813,2013-01-23 18:08:00,
2013-01-23 13:13:00,19.8,-2.8,-100.00,SSE,160,7.6,8.7,36,-99.99,,,0.00,LWC V2.10 B1813,2013-01-23 18:13:00,
2013-01-23 13:18:00,20.5,-2.2,-100.00,South,183,7.6,11.0,36,-99.99,,,0.00,LWC V2.10 B1813,2013-01-23 18:18:00,
2013-01-23 13:23:00,19.9,-3.3,-100.00,SSW,197,7.2,11.0,35,-99.99,,,0.00,LWC V2.10 B1813,2013-01-23 18:23:00,
2013-01-23 13:28:00,20.3,-2.9,-100.00,SSW,199,6.3,11.0,35,-99.99,,,0.00,LWC V2.10 B1813,2013-01-23 18:28:00,
2013-01-23 13:33:00,20.1,-3.1,-100.00,South,180,8.3,10.5,35,-99.99,,,0.00,LWC V2.10 B1813,2013-01-23 18:33:00,
2013-01-23 13:38:00,20.3,-2.9,-100.00,South,169,7.6,11.0,35,-99.99,,,0.00,LWC V2.10 B1813,2013-01-23 18:38:00,
2013-01-23 13:43:00,19.9,-3.9,-100.00,South,169,8.3,12.3,34,-99.99,,,0.00,LWC V2.10 B1813,2013-01-23 18:43:00,
2013-01-23 13:48:00,19.9,-3.9,-100.00,SSW,201,7.6,8.7,34,-99.99,,,0.00,LWC V2.10 B1813,2013-01-23 18:48:00,
2013-01-23 13:53:00,20.5,-2.8,-100.00,South,171,8.1,10.5,35,-99.99,,,0.00,LWC V2.10 B1813,2013-01-23 18:53:00,
2013-01-23 13:58:00,20.5,-3.4,-100.00,SSW,203,8.7,8.7,34,-99.99,,,0.00,LWC V2.10 B1813,2013-01-23 18:58:00,
2013-01-23 14:03:00,19.9,-3.9,-100.00,SSW,207,7.6,8.7,34,-99.99,,,0.00,LWC V2.10 B1813,2013-01-23 19:03:00,
2013-01-23 14:08:00,20.3,-2.9,-100.00,South,187,10.5,10.5,35,-99.99,,,0.00,LWC V2.10 B1813,2013-01-23 19:08:00,
2013-01-23 14:13:00,20.7,-2.6,-100.00,SSE,168,8.3,8.7,35,-99.99,,,0.00,LWC V2.10 B1813,2013-01-23 19:13:00,
2013-01-23 14:18:00,20.5,-3.4,-100.00,South,169,8.7,11.0,34,-99.99,,,0.00,LWC V2.10 B1813,2013-01-23 19:18:00,
2013-01-23 14:23:00,20.3,-3.5,-100.00,SSW,194,6.3,8.7,34,-99.99,,,0.00,LWC V2.10 B1813,2013-01-23 19:23:00,
2013-01-23 14:28:00,20.3,-2.9,-100.00,SSW,199,5.4,5.8,35,-99.99,,,0.00,LWC V2.10 B1813,2013-01-23 19:28:00,
2013-01-23 14:33:00,19.8,-4.0,-100.00,SSW,201,8.3,8.3,34,-99.99,,,0.00,LWC V2.10 B1813,2013-01-23 19:33:00,
2013-01-23 14:38:00,19.8,-4.0,-100.00,SSW,205,7.2,8.3,34,-99.99,,,0.00,LWC V2.10 B1813,2013-01-23 19:38:00,
2013-01-23 14:43:00,20.1,-3.1,-100.00,SSE,157,5.8,5.8,35,-99.99,,,0.00,LWC V2.10 B1813,2013-01-23 19:43:00,
2013-01-23 14:48:00,20.1,-3.7,-100.00,South,183,8.3,10.5,34,-99.99,,,0.00,LWC V2.10 B1813,2013-01-23 19:48:00,
2013-01-23 14:53:00,20.1,-3.7,-100.00,South,175,4.9,6.3,34,-99.99,,,0.00,LWC V2.10 B1813,2013-01-23 19:53:00,
2013-01-23 14:58:00,20.3,-3.5,-100.00,SSE,153,6.3,8.7,34,-99.99,,,0.00,LWC V2.10 B1813,2013-01-23 19:58:00,
2013-01-23 15:03:00,20.3,-3.5,-100.00,SSE,167,6.3,8.7,34,-99.99,,,0.00,LWC V2.10 B1813,2013-01-23 20:03:00,
2013-01-23 15:08:00,20.1,-3.1,-100.00,SSE,166,3.6,10.1,35,-99.99,,,0.00,LWC V2.10 B1813,2013-01-23 20:08:00,
2013-01-23 15:13:00,19.8,-4.0,-100.00,South,184,7.6,9.2,34,-99.99,,,0.00,LWC V2.10 B1813,2013-01-23 20:13:00,
2013-01-23 15:18:00,19.8,-4.0,-100.00,South,186,4.9,8.1,34,-99.99,,,0.00,LWC V2.10 B1813,2013-01-23 20:18:00,
2013-01-23 15:23:00,19.9,-3.9,-100.00,SSE,166,8.7,10.1,34,-99.99,,,0.00,LWC V2.10 B1813,2013-01-23 20:23:00,
2013-01-23 15:28:00,19.9,-3.9,-100.00,SW,228,5.8,7.6,34,-99.99,,,0.00,LWC V2.10 B1813,2013-01-23 20:28:00,
2013-01-23 15:33:00,19.8,-4.0,-100.00,South,174,6.7,6.7,34,-99.99,,,0.00,LWC V2.10 B1813,2013-01-23 20:33:00,
2013-01-23 15:38:00,20.1,-3.7,-100.00,South,174,5.4,6.3,34,-99.99,,,0.00,LWC V2.10 B1813,2013-01-23 20:38:00,
2013-01-23 15:43:00,20.1,-3.7,-100.00,South,190,6.3,10.5,34,-99.99,,,0.00,LWC V2.10 B1813,2013-01-23 20:43:00,
2013-01-23 15:48:00,20.3,-3.5,-100.00,SSE,151,7.6,11.0,34,-99.99,,,0.00,LWC V2.10 B1813,2013-01-23 20:48:00,
2013-01-23 15:53:00,20.3,-3.5,-100.00,South,184,4.9,8.1,34,-99.99,,,0.00,LWC V2.10 B1813,2013-01-23 20:53:00,
2013-01-23 15:58:00,20.3,-3.5,-100.00,South,185,5.4,11.0,34,-99.99,,,0.00,LWC V2.10 B1813,2013-01-23 20:58:00,
2013-01-23 16:03:00,20.1,-3.7,-100.00,South,190,8.7,10.1,34,-99.99,,,0.00,LWC V2.10 B1813,2013-01-23 21:03:00,
2013-01-23 16:08:00,20.1,-3.7,-100.00,SSW,207,6.3,8.7,34,-99.99,,,0.00,LWC V2.10 B1813,2013-01-23 21:08:00,
2013-01-23 16:13:00,20.3,-2.9,-100.00,SSE,156,4.0,7.2,35,-99.99,,,0.00,LWC V2.10 B1813,2013-01-23 21:13:00,
2013-01-23 16:18:00,20.3,-2.9,-100.00,SSW,206,4.9,6.3,35,-99.99,,,0.00,LWC V2.10 B1813,2013-01-23 21:18:00,
2013-01-23 16:23:00,20.3,-2.9,-100.00,SSW,194,5.4,6.3,35,-99.99,,,0.00,LWC V2.10 B1813,2013-01-23 21:23:00,
2013-01-23 16:28:00,20.3,-2.9,-100.00,South,169,5.4,8.1,35,-99.99,,,0.00,LWC V2.10 B1813,2013-01-23 21:28:00,
2013-01-23 16:33:00,20.3,-2.9,-100.00,SSE,161,5.4,10.5,35,-99.99,,,0.00,LWC V2.10 B1813,2013-01-23 21:33:00,
2013-01-23 16:38:00,20.1,-2.5,-100.00,South,188,6.3,6.3,36,-99.99,,,0.00,LWC V2.10 B1813,2013-01-23 21:38:00,
2013-01-23 16:43:00,19.9,-2.7,-100.00,South,174,8.7,11.0,36,-99.99,,,0.00,LWC V2.10 B1813,2013-01-23 21:43:00,
2013-01-23 16:49:00,19.8,-2.3,-100.00,South,182,3.6,10.1,37,-99.99,,,0.00,LWC V2.10 B1813,2013-01-23 21:49:00,
2013-01-23 16:54:00,19.8,-1.1,-100.00,South,190,7.6,8.1,39,-99.99,,,0.00,LWC V2.10 B1813,2013-01-23 21:54:00,
2013-01-23 16:59:00,19.6,-0.3,-100.00,South,176,7.6,7.6,41,-99.99,,,0.00,LWC V2.10 B1813,2013-01-23 21:59:00,
2013-01-23 17:04:00,19.6,0.3,-100.00,South,174,5.4,7.6,42,-99.99,,,0.00,LWC V2.10 B1813,2013-01-23 22:04:00,
2013-01-23 17:09:00,19.2,0.9,-100.00,South,181,3.6,7.6,44,-99.99,,,0.00,LWC V2.10 B1813,2013-01-23 22:09:00,
2013-01-23 17:14:00,19.2,0.9,-100.00,South,180,9.6,9.6,44,-99.99,,,0.00,LWC V2.10 B1813,2013-01-23 22:14:00,
2013-01-23 17:19:00,19.2,1.4,-100.00,South,191,4.0,10.5,45,-99.99,,,0.00,LWC V2.10 B1813,2013-01-23 22:19:00,
2013-01-23 17:24:00,19.0,1.7,-100.00,South,172,7.2,11.0,46,-99.99,,,0.00,LWC V2.10 B1813,2013-01-23 22:24:00,
2013-01-23 17:29:00,19.0,2.2,-100.00,South,170,5.4,8.1,47,-99.99,,,0.00,LWC V2.10 B1813,2013-01-23 22:29:00,
2013-01-23 17:34:00,18.7,2.7,-100.00,South,173,6.3,10.1,49,-99.99,,,0.00,LWC V2.10 B1813,2013-01-23 22:34:00,
2013-01-23 17:39:00,18.5,3.8,-100.00,SSW,196,8.3,8.7,52,-99.99,,,0.00,LWC V2.10 B1813,2013-01-23 22:39:00,
2013-01-23 17:44:00,18.5,4.7,-100.00,SSE,166,4.0,8.7,54,-99.99,,,0.00,LWC V2.10 B1813,2013-01-23 22:44:00,
2013-01-23 17:49:00,18.1,5.1,-100.00,SSE,165,8.1,9.6,56,-99.99,,,0.00,LWC V2.10 B1813,2013-01-23 22:49:00,
2013-01-23 17:54:00,18.0,6.1,-100.00,SSW,194,5.8,8.1,59,-99.99,,,0.00,LWC V2.10 B1813,2013-01-23 22:54:00,
2013-01-23 17:59:00,18.0,6.5,-100.00,South,183,8.7,8.7,60,-99.99,,,0.00,LWC V2.10 B1813,2013-01-23 22:59:00,
2013-01-23 18:04:00,17.8,7.0,-100.00,South,169,5.4,6.3,62,-99.99,,,0.00,LWC V2.10 B1813,2013-01-23 23:04:00,
2013-01-23 18:09:00,17.8,7.7,-100.00,South,175,7.6,7.6,64,-99.99,,,0.00,LWC V2.10 B1813,2013-01-23 23:09:00,
2013-01-23 18:14:00,17.6,7.9,-100.00,South,180,6.3,8.3,65,-99.99,,,0.00,LWC V2.10 B1813,2013-01-23 23:14:00,
2013-01-23 18:19:00,17.6,8.2,-100.00,South,170,5.8,8.7,66,-99.99,,,0.00,LWC V2.10 B1813,2013-01-23 23:19:00,
2013-01-23 18:24:00,17.6,8.5,-100.00,SSW,209,11.0,11.0,67,-99.99,,,0.00,LWC V2.10 B1813,2013-01-23 23:24:00,
2013-01-23 18:29:00,17.4,8.7,-100.00,South,188,8.3,8.7,68,-99.99,,,0.00,LWC V2.10 B1813,2013-01-23 23:29:00,
2013-01-23 18:34:00,17.4,9.0,-100.00,SSW,208,6.3,8.7,69,-99.99,,,0.00,LWC V2.10 B1813,2013-01-23 23:34:00,
2013-01-23 18:39:00,17.4,9.3,-100.00,South,170,6.3,8.7,70,-99.99,,,0.00,LWC V2.10 B1813,2013-01-23 23:39:00,
2013-01-23 18:44:00,17.2,9.5,-100.00,SSW,210,7.6,8.7,71,-99.99,,,0.00,LWC V2.10 B1813,2013-01-23 23:44:00,
2013-01-23 18:49:00,17.2,9.8,-100.00,South,171,8.1,8.1,72,-99.99,,,0.00,LWC V2.10 B1813,2013-01-23 23:49:00,
2013-01-23 18:54:00,17.4,10.0,-100.00,South,190,4.9,6.7,72,-99.99,,,0.00,LWC V2.10 B1813,2013-01-23 23:54:00,
2013-01-23 18:59:00,17.4,10.0,-100.00,South,176,5.4,5.4,72,-99.99,,,0.00,LWC V2.10 B1813,2013-01-23 23:59:00,
2013-01-23 19:04:00,17.4,10.3,-100.00,South,170,5.4,5.8,73,-99.99,,,0.00,LWC V2.10 B1813,2013-01-24 00:04:00,
2013-01-23 19:09:00,17.4,10.3,-100.00,SSE,166,4.0,6.3,73,-99.99,,,0.00,LWC V2.10 B1813,2013-01-24 00:09:00,
2013-01-23 19:14:00,17.2,9.8,-100.00,SSE,162,5.4,6.3,72,-99.99,,,0.00,LWC V2.10 B1813,2013-01-24 00:14:00,
2013-01-23 19:19:00,17.2,9.8,-100.00,SSE,162,5.4,7.6,72,-99.99,,,0.00,LWC V2.10 B1813,2013-01-24 00:19:00,
2013-01-23 19:24:00,17.1,9.3,-100.00,SSW,204,5.8,8.7,71,-99.99,,,0.00,LWC V2.10 B1813,2013-01-24 00:24:00,
2013-01-23 19:29:00,17.1,9.6,-100.00,SSE,160,5.8,8.3,72,-99.99,,,0.00,LWC V2.10 B1813,2013-01-24 00:29:00,
2013-01-23 19:34:00,17.1,9.6,-100.00,SSE,161,5.8,6.3,72,-99.99,,,0.00,LWC V2.10 B1813,2013-01-24 00:34:00,
2013-01-23 19:39:00,17.1,9.9,-100.00,South,182,3.6,4.9,73,-99.99,,,0.00,LWC V2.10 B1813,2013-01-24 00:39:00,
2013-01-23 19:44:00,16.9,9.8,-100.00,SSW,193,4.0,7.6,73,-99.99,,,0.00,LWC V2.10 B1813,2013-01-24 00:44:00,
2013-01-23 19:49:00,16.9,9.8,-100.00,SSW,198,7.2,8.7,73,-99.99,,,0.00,LWC V2.10 B1813,2013-01-24 00:49:00,
2013-01-23 19:54:00,16.9,9.8,-100.00,SSW,206,4.9,8.3,73,-99.99,,,0.00,LWC V2.10 B1813,2013-01-24 00:54:00,
2013-01-23 19:59:00,16.9,9.8,-100.00,South,188,4.9,8.1,73,-99.99,,,0.00,LWC V2.10 B1813,2013-01-24 00:59:00,
2013-01-23 20:04:00,16.9,9.8,-100.00,SSW,202,4.0,6.3,73,-99.99,,,0.00,LWC V2.10 B1813,2013-01-24 01:04:00,
2013-01-23 20:09:00,16.7,9.9,-100.00,SSW,198,5.4,6.3,74,-99.99,,,0.00,LWC V2.10 B1813,2013-01-24 01:09:00,
2013-01-23 20:14:00,16.9,10.1,-100.00,South,191,3.6,4.0,74,-99.99,,,0.00,LWC V2.10 B1813,2013-01-24 01:14:00,
2013-01-23 20:19:00,16.7,10.2,-100.00,SSW,200,4.9,4.9,75,-99.99,,,0.00,LWC V2.10 B1813,2013-01-24 01:19:00,
2013-01-23 20:24:00,16.7,10.2,-100.00,SSW,202,4.0,5.4,75,-99.99,,,0.00,LWC V2.10 B1813,2013-01-24 01:24:00,
2013-01-23 20:29:00,16.7,10.2,-100.00,SSW,198,4.0,6.3,75,-99.99,,,0.00,LWC V2.10 B1813,2013-01-24 01:29:00,
2013-01-23 20:34:00,16.7,10.2,-100.00,SW,223,4.9,4.9,75,-99.99,,,0.00,LWC V2.10 B1813,2013-01-24 01:34:00,
2013-01-23 20:39:00,16.7,10.5,-100.00,SSW,197,5.8,5.8,76,-99.99,,,0.00,LWC V2.10 B1813,2013-01-24 01:39:00,
2013-01-23 20:44:00,16.7,10.5,-100.00,SSW,201,5.4,7.6,76,-99.99,,,0.00,LWC V2.10 B1813,2013-01-24 01:44:00,
2013-01-23 20:49:00,16.7,10.8,-100.00,South,174,3.1,4.5,77,-99.99,,,0.00,LWC V2.10 B1813,2013-01-24 01:49:00,
2013-01-23 20:54:00,16.7,10.8,-100.00,SSW,202,4.9,4.9,77,-99.99,,,0.00,LWC V2.10 B1813,2013-01-24 01:54:00,
2013-01-23 20:59:00,16.7,11.1,-100.00,SSW,199,3.1,4.0,78,-99.99,,,0.00,LWC V2.10 B1813,2013-01-24 01:59:00,
2013-01-23 21:04:00,16.7,11.1,-100.00,SSW,203,4.9,4.9,78,-99.99,,,0.00,LWC V2.10 B1813,2013-01-24 02:04:00,
2013-01-23 21:09:00,16.9,11.2,-100.00,SW,218,4.0,4.0,78,-99.99,,,0.00,LWC V2.10 B1813,2013-01-24 02:09:00,
2013-01-23 21:14:00,16.9,11.2,-100.00,SW,219,2.7,5.8,78,-99.99,,,0.00,LWC V2.10 B1813,2013-01-24 02:14:00,
2013-01-23 21:19:00,16.9,11.2,-100.00,SSW,198,4.0,4.5,78,-99.99,,,0.00,LWC V2.10 B1813,2013-01-24 02:19:00,
2013-01-23 21:24:00,16.9,11.2,-100.00,SSW,205,2.7,4.9,78,-99.99,,,0.00,LWC V2.10 B1813,2013-01-24 02:24:00,
2013-01-23 21:29:00,16.9,11.2,-100.00,SSW,210,4.0,5.8,78,-99.99,,,0.00,LWC V2.10 B1813,2013-01-24 02:29:00,
2013-01-23 21:34:00,16.9,11.2,-100.00,South,186,3.6,4.0,78,-99.99,,,0.00,LWC V2.10 B1813,2013-01-24 02:34:00,
2013-01-23 21:39:00,16.9,11.2,-100.00,SSW,197,3.1,5.4,78,-99.99,,,0.00,LWC V2.10 B1813,2013-01-24 02:39:00,
2013-01-23 21:44:00,16.9,11.2,-100.00,SSW,198,3.1,4.0,78,-99.99,,,0.00,LWC V2.10 B1813,2013-01-24 02:44:00,
2013-01-23 21:49:00,16.9,11.2,-100.00,SSW,201,3.6,6.3,78,-99.99,,,0.00,LWC V2.10 B1813,2013-01-24 02:49:00,
2013-01-23 21:54:00,16.9,11.2,-100.00,SSW,198,4.9,5.8,78,-99.99,,,0.00,LWC V2.10 B1813,2013-01-24 02:54:00,
2013-01-23 21:59:00,16.9,11.2,-100.00,SSW,202,4.0,4.9,78,-99.99,,,0.00,LWC V2.10 B1813,2013-01-24 02:59:00,
2013-01-23 22:04:00,16.9,11.5,-100.00,SSW,194,4.0,4.9,79,-99.99,,,0.00,LWC V2.10 B1813,2013-01-24 03:04:00,
2013-01-23 22:09:00,16.9,11.2,-100.00,SSW,201,3.1,5.4,78,-99.99,,,0.00,LWC V2.10 B1813,2013-01-24 03:09:00,
2013-01-23 22:14:00,16.7,11.3,-100.00,SSW,202,3.1,4.9,79,-99.99,,,0.00,LWC V2.10 B1813,2013-01-24 03:14:00,
2013-01-23 22:19:00,16.7,11.3,-100.00,SSW,200,3.6,4.9,79,-99.99,,,0.00,LWC V2.10 B1813,2013-01-24 03:19:00,
2013-01-23 22:24:00,16.7,11.3,-100.00,SW,217,4.0,4.0,79,-99.99,,,0.00,LWC V2.10 B1813,2013-01-24 03:24:00,
2013-01-23 22:29:00,16.7,11.3,-100.00,SSW,205,4.0,5.4,79,-99.99,,,0.00,LWC V2.10 B1813,2013-01-24 03:29:00,
2013-01-23 22:34:00,16.7,11.3,-100.00,South,179,3.6,4.9,79,-99.99,,,0.00,LWC V2.10 B1813,2013-01-24 03:34:00,
2013-01-23 22:39:00,16.7,11.1,-100.00,SSW,207,5.4,5.4,78,-99.99,,,0.00,LWC V2.10 B1813,2013-01-24 03:39:00,
2013-01-23 22:44:00,16.7,11.1,-100.00,SSW,198,3.6,4.0,78,-99.99,,,0.00,LWC V2.10 B1813,2013-01-24 03:44:00,
2013-01-23 22:49:00,16.7,11.3,-100.00,SSW,199,4.0,6.3,79,-99.99,,,0.00,LWC V2.10 B1813,2013-01-24 03:49:00,
2013-01-23 22:54:00,16.7,11.3,-100.00,SSE,163,4.5,4.5,79,-99.99,,,0.00,LWC V2.10 B1813,2013-01-24 03:54:00,
2013-01-23 23:00:00,16.7,11.3,-100.00,SSW,198,4.9,5.4,79,-99.99,,,0.00,LWC V2.10 B1813,2013-01-24 04:00:00,
2013-01-23 23:05:00,16.7,11.1,-100.00,SSW,203,4.0,4.0,78,-99.99,,,0.00,LWC V2.10 B1813,2013-01-24 04:05:00,
2013-01-23 23:10:00,16.7,11.3,-100.00,SSW,199,4.0,5.8,79,-99.99,,,0.00,LWC V2.10 B1813,2013-01-24 04:10:00,
2013-01-23 23:15:00,16.9,11.2,-100.00,SSW,205,5.4,5.4,78,-99.99,,,0.00,LWC V2.10 B1813,2013-01-24 04:15:00,
2013-01-23 23:20:00,16.9,11.2,-100.00,SSW,200,5.8,5.8,78,-99.99,,,0.00,LWC V2.10 B1813,2013-01-24 04:20:00,
2013-01-23 23:25:00,16.9,11.2,-100.00,SSW,201,5.4,6.3,78,-99.99,,,0.00,LWC V2.10 B1813,2013-01-24 04:25:00,
2013-01-23 23:30:00,16.9,11.2,-100.00,SSW,196,3.6,5.8,78,-99.99,,,0.00,LWC V2.10 B1813,2013-01-24 04:30:00,
2013-01-23 23:35:00,16.9,11.2,-100.00,SSW,193,2.7,3.6,78,-99.99,,,0.00,LWC V2.10 B1813,2013-01-24 04:35:00,
2013-01-23 23:40:00,16.9,11.2,-100.00,SSW,195,4.0,5.8,78,-99.99,,,0.00,LWC V2.10 B1813,2013-01-24 04:40:00,
2013-01-23 23:45:00,16.9,11.5,-100.00,South,185,4.0,4.9,79,-99.99,,,0.00,LWC V2.10 B1813,2013-01-24 04:45:00,
2013-01-23 23:50:00,16.9,11.5,-100.00,SSW,197,7.2,7.2,79,-99.99,,,0.00,LWC V2.10 B1813,2013-01-24 04:50:00,
2013-01-23 23:55:00,16.7,11.3,-100.00,SSW,205,5.8,5.8,79,-99.99,,,0.00,LWC V2.10 B1813,2013-01-24 04:55:00,